Government of Jersey

Home Log in

Channel Islands Terminal Aerodrome Forecasts (TAFs)

Jersey Airport - EGJJ

EGJJ 030154Z 0303/0312 29006KT 9999 FEW030 PROB30 TEMPO 0303/0312 5000 SHRAGS FEW008 BKN014CB=

Guernsey Airport - EGJB

EGJB 030154Z 0303/0312 29006KT 9999 FEW025 PROB30 TEMPO 0303/0312 5000 SHRAGS FEW008 BKN014CB=

Alderney Airport - EGJA

EGJA 021844Z 0218/0300 CNL=